sensor_id;sensor_type;location;lat;lon;timestamp;P1;durP1;ratioP1;P2;durP2;ratioP2
35564;SDS011;21668;44.784;10.336;2022-10-23T00:02:44;52.05;;;31.23;;
35564;SDS011;21668;44.784;10.336;2022-10-23T00:09:51;52.47;;;33.75;;
35564;SDS011;21668;44.784;10.336;2022-10-23T00:12:56;59.83;;;33.75;;
35564;SDS011;21668;44.784;10.336;2022-10-23T00:29:02;49.55;;;30.27;;
35564;SDS011;21668;44.784;10.336;2022-10-23T00:32:08;48.85;;;29.67;;
35564;SDS011;21668;44.784;10.336;2022-10-23T00:38:45;55.75;;;31.88;;
35564;SDS011;21668;44.784;10.336;2022-10-23T00:41:50;50.03;;;31.85;;
35564;SDS011;21668;44.784;10.336;2022-10-23T00:45:21;45.90;;;30.95;;
35564;SDS011;21668;44.784;10.336;2022-10-23T00:49:34;52.28;;;31.10;;
35564;SDS011;21668;44.784;10.336;2022-10-23T00:52:40;56.63;;;31.60;;
35564;SDS011;21668;44.784;10.336;2022-10-23T00:55:49;55.88;;;31.33;;
35564;SDS011;21668;44.784;10.336;2022-10-23T00:58:59;55.95;;;31.17;;
35564;SDS011;21668;44.784;10.336;2022-10-23T01:02:04;52.83;;;29.90;;
35564;SDS011;21668;44.784;10.336;2022-10-23T01:43:54;55.40;;;29.90;;
35564;SDS011;21668;44.784;10.336;2022-10-23T02:01:56;45.63;;;26.33;;
35564;SDS011;21668;44.784;10.336;2022-10-23T02:05:27;38.33;;;24.73;;
35564;SDS011;21668;44.784;10.336;2022-10-23T02:34:19;36.13;;;22.98;;
35564;SDS011;21668;44.784;10.336;2022-10-23T03:13:09;43.08;;;26.10;;
35564;SDS011;21668;44.784;10.336;2022-10-23T03:16:19;46.63;;;26.97;;
35564;SDS011;21668;44.784;10.336;2022-10-23T03:19:32;44.05;;;27.40;;
35564;SDS011;21668;44.784;10.336;2022-10-23T10:26:58;49.88;;;30.70;;
35564;SDS011;21668;44.784;10.336;2022-10-23T10:30:15;49.03;;;30.13;;
35564;SDS011;21668;44.784;10.336;2022-10-23T10:49:39;45.70;;;29.38;;
35564;SDS011;21668;44.784;10.336;2022-10-23T10:57:39;46.72;;;29.02;;
35564;SDS011;21668;44.784;10.336;2022-10-23T11:00:46;45.33;;;29.45;;
35564;SDS011;21668;44.784;10.336;2022-10-23T11:04:12;40.65;;;27.42;;
35564;SDS011;21668;44.784;10.336;2022-10-23T11:07:40;46.75;;;26.80;;
35564;SDS011;21668;44.784;10.336;2022-10-23T11:10:55;40.03;;;27.17;;
35564;SDS011;21668;44.784;10.336;2022-10-23T11:14:03;40.72;;;28.48;;
35564;SDS011;21668;44.784;10.336;2022-10-23T11:20:20;37.90;;;27.60;;
35564;SDS011;21668;44.784;10.336;2022-10-23T11:27:21;43.80;;;29.52;;
35564;SDS011;21668;44.784;10.336;2022-10-23T11:30:53;44.47;;;29.67;;
35564;SDS011;21668;44.784;10.336;2022-10-23T11:38:16;45.85;;;30.33;;
35564;SDS011;21668;44.784;10.336;2022-10-23T11:41:21;42.17;;;29.63;;
35564;SDS011;21668;44.784;10.336;2022-10-23T11:47:59;43.53;;;28.30;;
35564;SDS011;21668;44.784;10.336;2022-10-23T11:51:04;48.28;;;30.90;;
35564;SDS011;21668;44.784;10.336;2022-10-23T11:57:26;45.85;;;29.98;;
35564;SDS011;21668;44.784;10.336;2022-10-23T12:00:31;44.00;;;29.92;;
35564;SDS011;21668;44.784;10.336;2022-10-23T12:06:57;43.53;;;30.45;;
35564;SDS011;21668;44.784;10.336;2022-10-23T12:10:19;45.42;;;31.70;;
35564;SDS011;21668;44.784;10.336;2022-10-23T12:16:42;45.88;;;30.00;;
35564;SDS011;21668;44.784;10.336;2022-10-23T12:19:46;39.65;;;29.10;;
35564;SDS011;21668;44.784;10.336;2022-10-23T12:26:19;42.83;;;30.63;;
35564;SDS011;21668;44.784;10.336;2022-10-23T12:36:25;46.88;;;30.63;;
35564;SDS011;21668;44.784;10.336;2022-10-23T12:39:42;42.72;;;29.40;;
35564;SDS011;21668;44.784;10.336;2022-10-23T12:42:51;47.33;;;29.42;;
35564;SDS011;21668;44.784;10.336;2022-10-23T12:46:03;44.53;;;29.13;;
35564;SDS011;21668;44.784;10.336;2022-10-23T12:49:20;46.83;;;28.55;;
35564;SDS011;21668;44.784;10.336;2022-10-23T12:52:26;39.33;;;26.15;;
35564;SDS011;21668;44.784;10.336;2022-10-23T12:55:31;43.13;;;29.08;;
35564;SDS011;21668;44.784;10.336;2022-10-23T12:58:52;46.80;;;31.42;;
35564;SDS011;21668;44.784;10.336;2022-10-23T13:02:00;46.00;;;29.52;;
35564;SDS011;21668;44.784;10.336;2022-10-23T13:05:05;44.63;;;30.02;;
35564;SDS011;21668;44.784;10.336;2022-10-23T13:08:10;42.75;;;29.92;;
35564;SDS011;21668;44.784;10.336;2022-10-23T13:11:37;44.00;;;29.83;;
35564;SDS011;21668;44.784;10.336;2022-10-23T13:15:01;42.60;;;30.25;;
35564;SDS011;21668;44.784;10.336;2022-10-23T13:18:19;42.42;;;28.88;;
35564;SDS011;21668;44.784;10.336;2022-10-23T13:21:23;44.17;;;27.63;;
35564;SDS011;21668;44.784;10.336;2022-10-23T13:24:34;45.45;;;30.42;;
35564;SDS011;21668;44.784;10.336;2022-10-23T13:27:38;45.58;;;28.17;;
35564;SDS011;21668;44.784;10.336;2022-10-23T13:30:43;41.17;;;27.17;;
35564;SDS011;21668;44.784;10.336;2022-10-23T13:34:15;38.45;;;27.48;;
35564;SDS011;21668;44.784;10.336;2022-10-23T13:40:28;42.97;;;29.65;;
35564;SDS011;21668;44.784;10.336;2022-10-23T13:43:32;43.60;;;28.23;;
35564;SDS011;21668;44.784;10.336;2022-10-23T13:46:37;35.95;;;26.35;;
35564;SDS011;21668;44.784;10.336;2022-10-23T13:49:41;39.30;;;26.90;;
35564;SDS011;21668;44.784;10.336;2022-10-23T13:52:45;45.55;;;28.92;;
35564;SDS011;21668;44.784;10.336;2022-10-23T13:55:49;44.20;;;28.83;;
35564;SDS011;21668;44.784;10.336;2022-10-23T13:58:54;39.40;;;26.50;;
35564;SDS011;21668;44.784;10.336;2022-10-23T14:01:59;44.35;;;26.80;;
35564;SDS011;21668;44.784;10.336;2022-10-23T14:05:03;39.17;;;27.20;;
35564;SDS011;21668;44.784;10.336;2022-10-23T14:08:07;41.00;;;27.35;;
35564;SDS011;21668;44.784;10.336;2022-10-23T14:11:11;41.08;;;26.83;;
35564;SDS011;21668;44.784;10.336;2022-10-23T14:14:17;40.92;;;26.33;;
35564;SDS011;21668;44.784;10.336;2022-10-23T14:17:21;35.72;;;24.75;;
35564;SDS011;21668;44.784;10.336;2022-10-23T14:20:25;46.35;;;26.10;;
35564;SDS011;21668;44.784;10.336;2022-10-23T14:23:30;41.10;;;26.95;;
35564;SDS011;21668;44.784;10.336;2022-10-23T14:26:33;48.13;;;28.70;;
35564;SDS011;21668;44.784;10.336;2022-10-23T14:29:39;43.13;;;27.17;;
35564;SDS011;21668;44.784;10.336;2022-10-23T14:32:43;40.10;;;25.55;;
35564;SDS011;21668;44.784;10.336;2022-10-23T14:35:48;44.22;;;25.73;;
35564;SDS011;21668;44.784;10.336;2022-10-23T14:38:53;38.65;;;25.48;;
35564;SDS011;21668;44.784;10.336;2022-10-23T14:42:00;46.22;;;26.40;;
35564;SDS011;21668;44.784;10.336;2022-10-23T14:45:04;40.78;;;25.70;;
35564;SDS011;21668;44.784;10.336;2022-10-23T14:48:09;34.15;;;22.55;;
35564;SDS011;21668;44.784;10.336;2022-10-23T14:51:18;38.42;;;24.00;;
35564;SDS011;21668;44.784;10.336;2022-10-23T14:54:22;35.53;;;24.75;;
35564;SDS011;21668;44.784;10.336;2022-10-23T14:57:27;41.38;;;24.52;;
35564;SDS011;21668;44.784;10.336;2022-10-23T15:00:31;33.72;;;23.13;;
35564;SDS011;21668;44.784;10.336;2022-10-23T15:03:36;39.65;;;25.42;;
35564;SDS011;21668;44.784;10.336;2022-10-23T15:06:40;43.25;;;25.13;;
35564;SDS011;21668;44.784;10.336;2022-10-23T15:09:44;35.90;;;23.65;;
35564;SDS011;21668;44.784;10.336;2022-10-23T15:12:49;37.47;;;23.42;;
35564;SDS011;21668;44.784;10.336;2022-10-23T15:16:06;39.00;;;25.30;;
35564;SDS011;21668;44.784;10.336;2022-10-23T15:19:12;40.50;;;24.85;;
35564;SDS011;21668;44.784;10.336;2022-10-23T15:22:17;41.70;;;24.75;;
35564;SDS011;21668;44.784;10.336;2022-10-23T15:25:25;41.15;;;24.63;;
35564;SDS011;21668;44.784;10.336;2022-10-23T15:28:29;41.88;;;25.92;;
35564;SDS011;21668;44.784;10.336;2022-10-23T15:34:40;36.42;;;24.75;;
35564;SDS011;21668;44.784;10.336;2022-10-23T15:37:45;46.13;;;24.92;;
35564;SDS011;21668;44.784;10.336;2022-10-23T15:40:49;40.53;;;23.85;;
35564;SDS011;21668;44.784;10.336;2022-10-23T15:43:57;40.67;;;24.17;;
35564;SDS011;21668;44.784;10.336;2022-10-23T15:47:02;41.17;;;24.67;;
35564;SDS011;21668;44.784;10.336;2022-10-23T15:53:09;43.25;;;25.45;;
35564;SDS011;21668;44.784;10.336;2022-10-23T15:59:18;42.38;;;25.80;;
35564;SDS011;21668;44.784;10.336;2022-10-23T16:02:34;45.22;;;26.83;;
35564;SDS011;21668;44.784;10.336;2022-10-23T16:05:48;46.97;;;26.92;;
35564;SDS011;21668;44.784;10.336;2022-10-23T16:22:32;45.40;;;28.45;;
35564;SDS011;21668;44.784;10.336;2022-10-23T16:25:42;49.10;;;29.63;;
35564;SDS011;21668;44.784;10.336;2022-10-23T16:28:51;55.65;;;30.20;;
35564;SDS011;21668;44.784;10.336;2022-10-23T16:33:04;49.15;;;30.25;;
35564;SDS011;21668;44.784;10.336;2022-10-23T16:36:25;50.90;;;29.10;;
35564;SDS011;21668;44.784;10.336;2022-10-23T16:40:34;49.05;;;31.52;;
35564;SDS011;21668;44.784;10.336;2022-10-23T16:44:32;51.10;;;31.45;;
35564;SDS011;21668;44.784;10.336;2022-10-23T16:47:46;52.88;;;31.42;;
35564;SDS011;21668;44.784;10.336;2022-10-23T16:56:48;54.92;;;31.92;;
35564;SDS011;21668;44.784;10.336;2022-10-23T16:59:55;54.25;;;30.85;;
35564;SDS011;21668;44.784;10.336;2022-10-23T17:03:03;55.30;;;32.78;;
35564;SDS011;21668;44.784;10.336;2022-10-23T17:06:08;50.45;;;29.95;;
35564;SDS011;21668;44.784;10.336;2022-10-23T17:09:14;55.45;;;31.70;;
35564;SDS011;21668;44.784;10.336;2022-10-23T17:12:19;53.17;;;32.22;;
35564;SDS011;21668;44.784;10.336;2022-10-23T17:15:24;54.83;;;31.65;;
35564;SDS011;21668;44.784;10.336;2022-10-23T17:18:28;53.83;;;32.47;;
35564;SDS011;21668;44.784;10.336;2022-10-23T17:21:34;54.78;;;30.63;;
35564;SDS011;21668;44.784;10.336;2022-10-23T17:24:41;62.42;;;34.08;;
35564;SDS011;21668;44.784;10.336;2022-10-23T17:27:46;61.13;;;33.22;;
35564;SDS011;21668;44.784;10.336;2022-10-23T17:30:53;65.63;;;34.67;;
35564;SDS011;21668;44.784;10.336;2022-10-23T17:34:00;62.35;;;34.15;;
35564;SDS011;21668;44.784;10.336;2022-10-23T17:37:26;59.70;;;33.83;;
35564;SDS011;21668;44.784;10.336;2022-10-23T17:40:33;61.80;;;32.63;;
35564;SDS011;21668;44.784;10.336;2022-10-23T17:43:44;57.85;;;33.72;;
35564;SDS011;21668;44.784;10.336;2022-10-23T17:47:46;62.38;;;35.47;;
35564;SDS011;21668;44.784;10.336;2022-10-23T17:51:01;69.28;;;33.75;;
35564;SDS011;21668;44.784;10.336;2022-10-23T17:54:50;62.15;;;35.17;;
35564;SDS011;21668;44.784;10.336;2022-10-23T18:01:56;64.55;;;33.80;;
35564;SDS011;21668;44.784;10.336;2022-10-23T18:08:40;59.38;;;32.67;;
35564;SDS011;21668;44.784;10.336;2022-10-23T18:34:45;55.45;;;30.77;;
35564;SDS011;21668;44.784;10.336;2022-10-23T18:49:28;52.25;;;28.98;;
35564;SDS011;21668;44.784;10.336;2022-10-23T18:53:27;54.92;;;29.38;;
35564;SDS011;21668;44.784;10.336;2022-10-23T18:56:32;54.88;;;28.90;;
35564;SDS011;21668;44.784;10.336;2022-10-23T19:03:36;44.72;;;25.88;;
35564;SDS011;21668;44.784;10.336;2022-10-23T19:06:44;49.45;;;25.35;;
35564;SDS011;21668;44.784;10.336;2022-10-23T19:13:23;44.78;;;25.38;;
35564;SDS011;21668;44.784;10.336;2022-10-23T19:20:15;43.50;;;23.90;;
35564;SDS011;21668;44.784;10.336;2022-10-23T19:26:55;55.22;;;26.65;;
35564;SDS011;21668;44.784;10.336;2022-10-23T19:49:59;39.75;;;22.83;;
35564;SDS011;21668;44.784;10.336;2022-10-23T19:53:16;41.13;;;22.83;;
35564;SDS011;21668;44.784;10.336;2022-10-23T20:07:30;40.78;;;23.55;;
35564;SDS011;21668;44.784;10.336;2022-10-23T20:26:10;42.13;;;23.48;;
35564;SDS011;21668;44.784;10.336;2022-10-23T20:44:19;49.78;;;24.30;;
35564;SDS011;21668;44.784;10.336;2022-10-23T20:47:27;45.83;;;24.30;;
35564;SDS011;21668;44.784;10.336;2022-10-23T20:55:17;50.92;;;25.08;;
35564;SDS011;21668;44.784;10.336;2022-10-23T21:02:30;47.25;;;23.67;;
35564;SDS011;21668;44.784;10.336;2022-10-23T21:15:26;48.85;;;24.23;;
35564;SDS011;21668;44.784;10.336;2022-10-23T21:23:10;41.92;;;23.67;;
35564;SDS011;21668;44.784;10.336;2022-10-23T21:26:22;50.13;;;24.98;;
35564;SDS011;21668;44.784;10.336;2022-10-23T21:33:06;46.95;;;24.45;;
35564;SDS011;21668;44.784;10.336;2022-10-23T21:58:03;46.40;;;26.13;;
35564;SDS011;21668;44.784;10.336;2022-10-23T22:16:06;48.65;;;27.05;;
35564;SDS011;21668;44.784;10.336;2022-10-23T22:20:06;52.20;;;27.13;;
35564;SDS011;21668;44.784;10.336;2022-10-23T22:23:12;56.38;;;29.88;;
